Time;durP1;ratioP1;P1;durP2;ratioP2;P2;SDS_P1;SDS_P2;PMS_P1;PMS_P2;Temp;Humidity;BMP_temperature;BMP_pressure;BME280_temperature;BME280_humidity;BME280_pressure;Samples;Min_cycle;Max_cycle;Signal;HPM_P1;HPM_P2
2022/01/23 00:00:34;;;;;;;15.67;10.33;;;;;;;5.06;71.30;98229.28;5056914;28;20532;-71
2022/01/23 00:03:02;;;;;;;18.90;11.30;;;;;;;4.98;71.71;98230.69;5071040;28;20428;-71
2022/01/23 00:05:34;;;;;;;15.23;9.73;;;;;;;4.86;71.86;98224.44;5064232;28;20435;-73
2022/01/23 00:08:00;;;;;;;19.50;11.23;;;;;;;4.67;72.87;98216.91;5070969;28;20796;-71
2022/01/23 00:10:26;;;;;;;17.13;10.43;;;;;;;4.85;71.92;98227.97;5057579;28;20471;-73
2022/01/23 00:12:56;;;;;;;16.30;10.10;;;;;;;4.53;72.45;98222.91;5047977;28;20422;-72
2022/01/23 00:18:06;;;;;;;17.40;9.23;;;;;;;4.67;72.52;98215.13;5065287;28;20432;-72
2022/01/23 00:20:33;;;;;;;19.33;10.50;;;;;;;5.17;71.29;98213.03;5070272;28;20931;-71
2022/01/23 00:23:02;;;;;;;18.13;10.67;;;;;;;5.22;70.00;98215.34;5058398;28;20187;-71
2022/01/23 00:30:59;;;;;;;17.60;10.90;;;;;;;5.43;70.01;98207.16;5069637;28;20832;-71
2022/01/23 00:33:25;;;;;;;17.63;10.00;;;;;;;5.27;70.40;98208.13;5060515;28;20464;-72
2022/01/23 00:35:51;;;;;;;19.67;10.50;;;;;;;5.05;70.35;98206.00;5070358;28;20429;-71
2022/01/23 00:38:17;;;;;;;20.90;10.57;;;;;;;5.00;71.54;98221.88;5071414;28;20908;-71
2022/01/23 00:40:45;;;;;;;17.43;11.23;;;;;;;5.20;70.32;98222.41;5070321;28;20454;-72
2022/01/23 00:43:25;;;;;;;24.87;11.67;;;;;;;5.41;70.47;98214.25;5071618;28;20427;-71
2022/01/23 00:45:56;;;;;;;29.97;11.20;;;;;;;5.45;69.58;98211.34;5069808;28;20448;-71
2022/01/23 00:48:27;;;;;;;16.93;9.77;;;;;;;5.59;69.33;98205.28;5070718;28;20838;-73
2022/01/23 00:50:53;;;;;;;18.67;10.63;;;;;;;5.57;69.62;98209.72;5036879;28;20816;-71
2022/01/23 00:53:20;;;;;;;16.20;10.00;;;;;;;5.80;68.65;98220.44;5070268;28;20440;-71
2022/01/23 00:55:47;;;;;;;14.57;9.60;;;;;;;5.96;68.17;98209.91;5070970;28;20969;-72
2022/01/23 00:58:13;;;;;;;14.33;9.57;;;;;;;5.77;68.19;98195.47;5069912;28;20187;-73
2022/01/23 01:00:40;;;;;;;17.57;10.10;;;;;;;5.85;68.24;98197.59;5064107;28;20825;-70
2022/01/23 01:03:06;;;;;;;15.43;9.97;;;;;;;6.04;67.72;98202.47;5073982;28;20492;-70
2022/01/23 01:05:32;;;;;;;13.60;9.20;;;;;;;6.11;67.08;98213.31;5071672;28;20452;-72
2022/01/23 01:08:00;;;;;;;13.00;8.53;;;;;;;6.13;67.12;98208.84;5072600;28;20518;-71
2022/01/23 01:10:34;;;;;;;13.87;8.03;;;;;;;6.19;66.96;98208.44;5071807;28;20841;-72
2022/01/23 01:13:02;;;;;;;17.07;8.43;;;;;;;6.24;66.88;98208.13;5053383;28;20792;-72
2022/01/23 01:15:54;;;;;;;13.63;8.53;;;;;;;6.13;67.04;98220.09;5053209;28;20452;-70
2022/01/23 01:32:14;;;;;;;13.87;9.77;;;;;;;6.11;67.21;98200.31;5070116;28;20551;-73
2022/01/23 01:34:49;;;;;;;14.97;8.87;;;;;;;6.28;66.93;98194.84;5071581;28;20981;-70
2022/01/23 01:37:15;;;;;;;12.63;7.87;;;;;;;6.05;66.73;98198.13;5067817;28;20424;-70
2022/01/23 01:39:41;;;;;;;12.47;8.27;;;;;;;5.61;68.20;98203.41;5074193;28;20416;-71
2022/01/23 01:42:07;;;;;;;12.87;7.97;;;;;;;5.91;68.23;98199.81;5047773;28;20441;-71
2022/01/23 01:44:33;;;;;;;13.20;8.93;;;;;;;5.84;68.21;98207.16;5073176;28;20178;-71
2022/01/23 01:46:59;;;;;;;12.23;8.33;;;;;;;5.96;67.09;98212.53;5073608;28;20500;-72
2022/01/23 01:49:30;;;;;;;11.57;8.20;;;;;;;6.08;66.94;98209.16;5064401;28;20194;-71
2022/01/23 01:51:57;;;;;;;12.30;7.67;;;;;;;5.62;68.05;98207.69;5074692;28;20565;-72
2022/01/23 01:54:26;;;;;;;10.53;7.03;;;;;;;6.11;67.32;98213.31;5073413;28;20431;-71
2022/01/23 01:57:03;;;;;;;14.43;7.93;;;;;;;6.09;67.17;98209.97;5073554;28;20433;-71
2022/01/23 01:59:49;;;;;;;12.97;8.13;;;;;;;5.79;67.39;98208.41;5073531;28;20424;-72
2022/01/23 02:10:31;;;;;;;10.83;7.50;;;;;;;6.34;67.30;98206.63;5050715;28;20998;-70
2022/01/23 02:16:00;;;;;;;12.57;8.10;;;;;;;5.79;68.43;98203.19;5060762;28;20793;-72
2022/01/23 02:18:28;;;;;;;15.10;8.73;;;;;;;5.73;68.50;98203.56;5068453;28;20182;-73
2022/01/23 02:51:27;;;;;;;18.73;8.70;;;;;;;6.23;67.86;98162.25;5072452;28;21052;-72
2022/01/23 02:56:22;;;;;;;14.63;9.40;;;;;;;5.72;69.20;98162.88;5072303;28;20433;-71
2022/01/23 02:58:57;;;;;;;13.37;8.43;;;;;;;5.98;68.57;98167.25;5073085;28;20186;-70
2022/01/23 03:01:27;;;;;;;14.10;8.60;;;;;;;6.18;68.13;98161.69;5071800;28;20494;-71
2022/01/23 03:03:59;;;;;;;13.70;9.23;;;;;;;6.24;67.70;98166.47;5057049;28;20483;-71
2022/01/23 03:09:49;;;;;;;13.80;9.60;;;;;;;6.19;67.67;98179.00;5072371;28;20451;-71
2022/01/23 03:26:01;;;;;;;13.80;9.50;;;;;;;6.67;65.96;98194.06;5072604;28;20421;-71
2022/01/23 03:30:37;;;;;;;16.23;9.77;;;;;;;6.34;67.06;98195.34;5058785;28;20767;-70
2022/01/23 03:33:03;;;;;;;16.13;10.93;;;;;;;6.48;66.99;98194.47;5070334;28;20437;-71
2022/01/23 03:35:28;;;;;;;14.67;10.10;;;;;;;6.23;67.38;98194.31;5071048;28;20413;-71
2022/01/23 03:37:54;;;;;;;16.77;11.77;;;;;;;6.02;67.84;98199.13;5067008;28;20186;-71
2022/01/23 03:40:20;;;;;;;15.60;10.00;;;;;;;6.24;67.74;98200.31;5063443;28;20227;-71
2022/01/23 03:42:46;;;;;;;16.60;9.70;;;;;;;6.42;67.29;98201.72;5071535;28;20186;-71
2022/01/23 03:50:41;;;;;;;18.50;9.77;;;;;;;6.21;67.72;98206.56;5058127;28;20460;-71
2022/01/23 03:53:07;;;;;;;13.33;9.23;;;;;;;6.23;67.78;98206.50;5070831;28;20795;-71
2022/01/23 03:55:33;;;;;;;15.43;10.20;;;;;;;6.24;67.73;98208.13;5071134;28;20431;-70
2022/01/23 03:57:58;;;;;;;16.17;10.23;;;;;;;6.37;67.30;98208.19;5071351;28;20185;-72
2022/01/23 04:00:24;;;;;;;16.37;10.27;;;;;;;6.30;67.08;98208.56;5060159;28;20467;-71
2022/01/23 04:02:50;;;;;;;13.80;9.80;;;;;;;6.02;67.52;98219.13;5064647;28;20183;-71
2022/01/23 04:05:16;;;;;;;14.93;9.63;;;;;;;5.95;68.14;98216.88;5068989;28;20181;-72
2022/01/23 04:07:41;;;;;;;19.07;11.00;;;;;;;5.88;68.47;98213.00;5072485;28;20932;-71
2022/01/23 04:10:09;;;;;;;15.47;10.77;;;;;;;5.84;69.15;98221.94;5072419;28;20736;-72
2022/01/23 04:34:00;;;;;;;19.47;11.27;;;;;;;6.43;66.16;98202.56;5055899;28;20781;-71
2022/01/23 05:00:54;;;;;;;20.43;13.70;;;;;;;6.52;66.25;98199.38;5070240;28;20436;-71
2022/01/23 05:06:06;;;;;;;24.13;15.73;;;;;;;6.57;65.89;98204.25;5057340;28;20422;-71
2022/01/23 05:08:35;;;;;;;24.40;14.63;;;;;;;6.63;65.89;98203.00;5070581;28;20421;-72
2022/01/23 05:11:02;;;;;;;20.77;13.87;;;;;;;6.71;65.53;98200.72;5070474;28;20562;-72
2022/01/23 05:13:28;;;;;;;29.13;17.50;;;;;;;6.54;65.59;98194.88;5054414;28;20904;-72
2022/01/23 05:15:55;;;;;;;22.73;14.57;;;;;;;6.35;65.99;98197.03;5069752;28;20810;-71
2022/01/23 05:18:21;;;;;;;25.90;14.17;;;;;;;6.34;66.49;98195.34;5069588;28;20496;-72
2022/01/23 05:20:51;;;;;;;19.60;11.93;;;;;;;6.07;67.03;98202.28;5070647;28;20452;-71
2022/01/23 05:23:17;;;;;;;21.83;12.60;;;;;;;6.21;67.30;98203.97;5070632;28;20170;-71
2022/01/23 05:25:43;;;;;;;19.20;12.50;;;;;;;6.24;67.29;98218.56;5057572;28;20428;-72
2022/01/23 05:28:09;;;;;;;20.00;12.37;;;;;;;6.50;66.33;98216.84;5071036;28;20228;-72
2022/01/23 05:30:36;;;;;;;19.07;11.70;;;;;;;6.58;65.96;98211.13;5070838;28;20571;-72
2022/01/23 05:33:01;;;;;;;21.47;12.87;;;;;;;6.69;65.94;98213.00;5069925;28;20182;-71
2022/01/23 05:35:29;;;;;;;20.27;13.43;;;;;;;6.67;65.75;98223.53;5068386;28;20447;-72
2022/01/23 05:37:55;;;;;;;20.70;12.60;;;;;;;6.70;65.64;98222.50;5048893;28;20245;-73
2022/01/23 05:40:24;;;;;;;22.67;13.93;;;;;;;6.75;65.76;98228.25;5052169;28;20428;-72
2022/01/23 05:42:49;;;;;;;21.67;13.43;;;;;;;6.73;65.47;98224.91;5069962;28;20186;-72
2022/01/23 05:45:15;;;;;;;26.43;13.50;;;;;;;6.73;65.87;98224.91;5076323;28;20443;-72
2022/01/23 05:47:41;;;;;;;23.90;13.57;;;;;;;6.75;65.25;98226.47;5053715;28;20669;-72
2022/01/23 05:50:07;;;;;;;20.40;12.03;;;;;;;6.78;65.63;98211.56;5069465;28;20423;-71
2022/01/23 05:52:33;;;;;;;20.33;12.63;;;;;;;6.87;65.47;98211.78;5070624;28;20221;-71
2022/01/23 05:54:59;;;;;;;24.10;14.00;;;;;;;6.94;65.23;98211.34;5056580;28;20426;-72
2022/01/23 05:57:25;;;;;;;19.43;12.60;;;;;;;6.90;65.25;98216.78;5069866;28;20430;-72
2022/01/23 05:59:50;;;;;;;23.23;13.57;;;;;;;6.91;65.19;98228.03;5070071;28;20417;-72
2022/01/23 06:02:16;;;;;;;20.63;13.53;;;;;;;6.86;65.56;98230.13;5068818;28;20286;-71
2022/01/23 06:04:42;;;;;;;23.33;14.60;;;;;;;6.86;65.48;98223.13;5060895;28;20179;-72
2022/01/23 06:07:07;;;;;;;23.87;14.43;;;;;;;6.82;65.41;98239.09;5051136;28;20180;-71
2022/01/23 06:09:36;;;;;;;24.43;14.00;;;;;;;6.74;65.57;98237.00;5068626;28;20217;-72
2022/01/23 06:12:02;;;;;;;18.90;12.80;;;;;;;6.72;65.63;98234.50;5068787;28;20245;-72
2022/01/23 06:14:28;;;;;;;21.27;12.87;;;;;;;6.77;65.56;98239.41;5062955;28;20461;-72
2022/01/23 06:16:54;;;;;;;23.63;16.07;;;;;;;6.77;65.85;98247.22;5059892;28;20859;-73
2022/01/23 06:19:19;;;;;;;22.10;12.70;;;;;;;6.75;65.92;98251.69;5068362;28;20257;-71
2022/01/23 06:21:45;;;;;;;19.90;13.37;;;;;;;6.85;65.41;98254.53;5072992;28;20237;-72
2022/01/23 06:24:22;;;;;;;20.20;13.20;;;;;;;6.84;65.68;98248.47;5055679;28;20220;-73
2022/01/23 06:26:50;;;;;;;20.57;13.10;;;;;;;6.90;65.54;98248.06;5061362;28;20738;-72
2022/01/23 06:29:17;;;;;;;21.67;14.13;;;;;;;6.90;64.96;98250.66;5073223;28;20471;-72
2022/01/23 06:31:48;;;;;;;18.93;11.57;;;;;;;6.94;65.08;98250.44;5073607;28;20503;-72
2022/01/23 06:34:15;;;;;;;24.30;15.20;;;;;;;7.00;64.92;98255.25;5074059;28;20511;-72
2022/01/23 06:36:41;;;;;;;22.40;14.17;;;;;;;7.01;64.85;98251.72;5049708;28;20524;-72
2022/01/23 06:39:08;;;;;;;22.43;13.57;;;;;;;7.09;64.96;98251.19;5073066;28;20435;-71
2022/01/23 06:41:34;;;;;;;18.40;12.83;;;;;;;7.11;65.00;98254.53;5073637;28;21070;-71
2022/01/23 06:44:01;;;;;;;19.50;12.20;;;;;;;7.06;64.55;98260.03;5073348;28;20515;-72
2022/01/23 06:46:26;;;;;;;23.20;13.57;;;;;;;6.92;64.67;98258.38;5038997;28;20562;-72
2022/01/23 06:48:52;;;;;;;21.77;13.50;;;;;;;6.94;65.06;98258.25;5072004;28;20468;-71
2022/01/23 06:51:17;;;;;;;19.97;13.07;;;;;;;6.99;64.96;98261.41;5072971;28;20243;-71
2022/01/23 06:53:43;;;;;;;23.60;14.17;;;;;;;7.03;64.61;98268.09;5055127;28;20232;-71
2022/01/23 06:56:09;;;;;;;21.40;13.33;;;;;;;7.06;64.77;98270.47;5055956;28;20186;-71
2022/01/23 06:58:34;;;;;;;21.57;13.37;;;;;;;7.02;64.74;98262.03;5068286;28;20360;-71
2022/01/23 07:01:00;;;;;;;22.60;14.27;;;;;;;7.05;64.91;98264.44;5072531;28;20286;-72
2022/01/23 07:03:26;;;;;;;29.13;16.03;;;;;;;6.96;65.34;98272.03;5073063;28;20186;-71
2022/01/23 07:05:51;;;;;;;23.93;12.90;;;;;;;6.60;65.82;98277.00;5065005;28;20217;-71
2022/01/23 07:08:18;;;;;;;20.23;13.97;;;;;;;6.82;65.45;98281.59;5074459;28;20199;-71
2022/01/23 07:10:44;;;;;;;23.13;13.70;;;;;;;6.76;65.21;98277.63;5072915;28;20733;-71
2022/01/23 07:13:09;;;;;;;24.83;15.60;;;;;;;6.66;65.80;98279.19;5058332;28;20464;-71
2022/01/23 07:15:35;;;;;;;23.80;15.33;;;;;;;6.69;66.02;98278.16;5075159;28;20179;-71
2022/01/23 07:18:00;;;;;;;24.40;14.77;;;;;;;6.71;65.46;98289.31;5073542;28;20184;-70
2022/01/23 07:20:26;;;;;;;22.43;15.13;;;;;;;6.79;65.54;98292.25;5074068;28;20528;-71
2022/01/23 07:22:52;;;;;;;25.40;15.50;;;;;;;6.85;65.35;98297.03;5073549;28;20236;-70
2022/01/23 07:25:17;;;;;;;25.20;14.60;;;;;;;6.96;65.18;98303.31;5056734;28;20597;-70
2022/01/23 07:27:49;;;;;;;22.20;14.73;;;;;;;6.95;64.91;98307.69;5072320;28;20182;-73
2022/01/23 07:30:35;;;;;;;22.50;13.90;;;;;;;6.79;64.88;98297.47;5055085;28;20297;-71
2022/01/23 07:33:00;;;;;;;22.03;13.50;;;;;;;6.84;65.02;98299.75;5070867;28;20735;-72
2022/01/23 07:35:26;;;;;;;26.57;16.23;;;;;;;6.90;65.55;98300.19;5042755;28;20439;-71
2022/01/23 07:37:52;;;;;;;24.73;16.00;;;;;;;6.89;65.04;98292.44;5051477;28;20178;-71
2022/01/23 07:40:19;;;;;;;26.63;14.90;;;;;;;6.89;65.37;98290.69;5071259;28;20194;-71
2022/01/23 07:42:45;;;;;;;22.87;14.10;;;;;;;6.98;65.02;98299.69;5072189;28;20182;-71
2022/01/23 07:45:11;;;;;;;23.37;15.20;;;;;;;7.04;65.30;98293.22;5071243;28;20435;-72
2022/01/23 07:47:36;;;;;;;23.17;14.93;;;;;;;7.07;65.10;98295.59;5072641;28;20881;-72
2022/01/23 07:50:03;;;;;;;24.17;15.40;;;;;;;7.06;64.93;98293.94;5071767;28;20186;-72
2022/01/23 07:52:30;;;;;;;28.10;16.33;;;;;;;7.11;65.23;98301.47;5072073;28;20610;-72
2022/01/23 07:54:56;;;;;;;29.27;17.67;;;;;;;6.95;64.97;98304.25;5070949;28;20412;-72
2022/01/23 07:57:22;;;;;;;31.03;17.80;;;;;;;6.95;65.56;98314.66;5071116;28;20501;-72
2022/01/23 07:59:48;;;;;;;28.60;17.10;;;;;;;7.12;65.28;98324.00;5054040;28;20820;-72
2022/01/23 08:02:14;;;;;;;29.37;17.97;;;;;;;7.20;64.92;98314.69;5070810;28;20198;-71
2022/01/23 08:04:40;;;;;;;28.67;17.10;;;;;;;7.11;64.86;98317.94;5049571;28;20442;-71
2022/01/23 08:07:22;;;;;;;27.63;18.27;;;;;;;7.01;65.51;98328.13;5058819;28;20182;-71
2022/01/23 08:09:47;;;;;;;35.43;19.57;;;;;;;7.09;65.53;98324.19;5059119;28;20180;-72
2022/01/23 08:12:13;;;;;;;28.63;18.03;;;;;;;7.15;65.48;98326.38;5056314;28;20474;-71
2022/01/23 08:14:39;;;;;;;27.10;18.20;;;;;;;7.09;65.00;98329.41;5074914;28;20208;-71
2022/01/23 08:17:04;;;;;;;25.23;15.10;;;;;;;6.99;65.58;98322.22;5074062;28;20182;-71
2022/01/23 08:19:30;;;;;;;29.17;18.60;;;;;;;7.01;65.57;98327.31;5074014;28;20182;-71
2022/01/23 08:21:56;;;;;;;37.07;22.00;;;;;;;7.08;65.65;98328.56;5058732;28;20194;-72
2022/01/23 08:24:21;;;;;;;29.63;17.57;;;;;;;7.14;65.39;98328.16;5073787;28;20657;-72
2022/01/23 08:26:47;;;;;;;31.50;18.00;;;;;;;7.01;65.56;98333.34;5070891;28;20208;-71
2022/01/23 08:29:12;;;;;;;29.33;18.33;;;;;;;7.09;65.46;98325.00;5070001;28;20556;-73
2022/01/23 08:31:38;;;;;;;28.83;18.67;;;;;;;7.12;65.45;98340.47;5071707;28;20222;-70
2022/01/23 08:34:03;;;;;;;28.03;17.33;;;;;;;7.15;65.17;98337.66;5072783;28;20810;-70
2022/01/23 08:36:31;;;;;;;28.93;18.67;;;;;;;7.22;65.03;98338.91;5054880;28;20178;-71
2022/01/23 08:38:59;;;;;;;35.37;19.60;;;;;;;7.17;64.96;98350.56;5071779;28;20273;-71
2022/01/23 08:43:51;;;;;;;28.33;17.87;;;;;;;7.28;64.83;98355.09;5055205;28;20451;-71
2022/01/23 08:46:17;;;;;;;36.27;20.80;;;;;;;7.13;65.07;98346.50;5069179;28;20555;-70
2022/01/23 08:48:43;;;;;;;26.00;16.20;;;;;;;7.26;65.10;98351.75;5067776;28;20785;-72
2022/01/23 08:51:09;;;;;;;27.50;17.47;;;;;;;7.10;64.93;98351.94;5068278;28;20467;-71
2022/01/23 08:53:35;;;;;;;27.80;15.60;;;;;;;7.29;65.11;98341.94;5070412;28;20427;-71
2022/01/23 08:56:01;;;;;;;28.40;17.30;;;;;;;7.31;64.65;98339.22;5054987;28;20425;-70
2022/01/23 08:58:27;;;;;;;22.47;15.00;;;;;;;7.13;65.10;98339.53;5037652;28;20231;-72
2022/01/23 09:00:52;;;;;;;25.47;15.30;;;;;;;7.20;65.21;98337.34;5069622;28;20310;-70
2022/01/23 09:03:18;;;;;;;26.30;14.47;;;;;;;7.16;64.78;98341.09;5069586;28;20679;-72
2022/01/23 09:05:44;;;;;;;25.63;14.60;;;;;;;7.31;64.77;98334.03;5048513;28;20222;-71
2022/01/23 09:08:09;;;;;;;25.73;15.23;;;;;;;7.36;64.00;98332.75;5065303;28;20178;-72
2022/01/23 09:10:41;;;;;;;23.97;14.83;;;;;;;7.37;64.19;98325.75;5069749;28;20282;-71
2022/01/23 09:13:29;;;;;;;22.93;14.80;;;;;;;7.26;64.74;98331.69;5054609;28;20182;-73
2022/01/23 09:15:55;;;;;;;28.67;15.03;;;;;;;7.36;65.05;98321.47;5072029;28;20485;-74
2022/01/23 09:18:20;;;;;;;20.80;13.90;;;;;;;7.51;63.99;98328.25;5055019;28;21168;-70
2022/01/23 09:20:46;;;;;;;24.80;13.83;;;;;;;7.60;64.05;98323.34;5070752;28;20240;-71
2022/01/23 09:23:11;;;;;;;21.23;13.47;;;;;;;7.68;63.29;98321.88;5070855;28;20178;-73
2022/01/23 09:25:37;;;;;;;20.83;14.00;;;;;;;7.82;63.30;98315.69;5071296;28;20186;-72
2022/01/23 09:28:04;;;;;;;24.63;15.00;;;;;;;7.83;62.86;98325.19;5070344;28;20269;-72
2022/01/23 09:30:35;;;;;;;31.77;18.40;;;;;;;7.81;62.43;98318.41;5071423;28;20185;-72
2022/01/23 09:33:01;;;;;;;24.07;14.80;;;;;;;7.86;62.57;98328.53;5071480;28;20843;-69
2022/01/23 09:35:27;;;;;;;23.20;14.87;;;;;;;7.74;63.61;98328.44;5038026;28;20922;-70
2022/01/23 09:37:53;;;;;;;24.47;14.90;;;;;;;7.98;62.99;98328.50;5048082;28;20432;-69
2022/01/23 09:40:18;;;;;;;25.03;15.47;;;;;;;8.03;62.42;98325.56;5071070;28;20235;-70
2022/01/23 09:42:51;;;;;;;25.33;16.43;;;;;;;8.12;62.00;98319.69;5052517;28;20214;-71
2022/01/23 09:45:17;;;;;;;28.13;16.73;;;;;;;8.03;62.24;98322.09;5027496;28;20180;-70
2022/01/23 09:47:43;;;;;;;24.10;16.60;;;;;;;8.22;62.14;98322.47;5054327;28;20440;-72
2022/01/23 09:50:10;;;;;;;23.77;15.63;;;;;;;8.33;60.91;98321.69;5070752;28;20448;-70
2022/01/23 09:52:37;;;;;;;24.03;16.10;;;;;;;8.45;60.59;98320.81;5061515;28;20466;-72
2022/01/23 09:55:10;;;;;;;26.63;16.10;;;;;;;8.39;60.41;98323.03;5064396;28;20431;-70
2022/01/23 09:57:38;;;;;;;30.30;16.40;;;;;;;8.49;59.82;98324.09;5058561;28;20425;-70
2022/01/23 10:00:07;;;;;;;22.93;14.77;;;;;;;8.63;60.06;98322.25;5058392;28;20827;-71
2022/01/23 10:02:33;;;;;;;18.80;13.33;;;;;;;8.76;59.84;98322.97;5073096;28;20445;-70
2022/01/23 10:04:58;;;;;;;20.17;13.50;;;;;;;8.90;58.46;98320.19;5071445;28;20508;-70
2022/01/23 10:07:24;;;;;;;23.43;14.03;;;;;;;8.96;57.42;98323.28;5073142;28;20175;-71
2022/01/23 10:09:57;;;;;;;23.97;15.83;;;;;;;8.94;58.33;98325.19;5090975;28;20183;-71
2022/01/23 10:12:26;;;;;;;29.70;14.13;;;;;;;8.90;58.24;98317.56;5076044;28;20558;-71
2022/01/23 10:14:56;;;;;;;19.33;12.93;;;;;;;8.84;58.07;98319.78;5073984;28;20432;-71
2022/01/23 10:17:22;;;;;;;22.43;13.63;;;;;;;8.35;58.80;98322.41;5072769;28;20433;-69
2022/01/23 10:19:47;;;;;;;25.60;14.63;;;;;;;8.72;57.89;98322.38;5064391;28;20430;-71
2022/01/23 10:22:14;;;;;;;22.00;14.70;;;;;;;8.83;57.04;98321.59;5070439;28;20311;-70
2022/01/23 10:24:40;;;;;;;24.37;14.90;;;;;;;8.39;58.73;98320.41;5076057;28;20187;-71
2022/01/23 10:27:07;;;;;;;20.43;13.27;;;;;;;8.47;58.50;98323.31;5057905;28;20749;-71
2022/01/23 10:29:36;;;;;;;21.80;14.10;;;;;;;8.38;58.51;98337.88;5074780;28;20948;-68
2022/01/23 10:32:21;;;;;;;20.00;12.50;;;;;;;8.77;57.63;98324.66;5057523;28;20551;-72
2022/01/23 10:34:56;;;;;;;22.20;14.30;;;;;;;8.78;57.45;98330.72;5062445;28;20465;-72
2022/01/23 10:37:40;;;;;;;18.20;12.43;;;;;;;8.57;58.14;98324.34;5066846;28;20489;-71
2022/01/23 10:40:35;;;;;;;25.40;14.17;;;;;;;8.63;58.11;98323.06;5074535;28;20429;-72
2022/01/23 10:50:53;;;;;;;21.47;14.53;;;;;;;8.28;59.05;98310.75;5049806;28;20505;-72
2022/01/23 10:53:19;;;;;;;21.90;15.57;;;;;;;8.09;60.79;98316.47;5071286;28;20445;-70
2022/01/23 10:55:45;;;;;;;26.20;16.20;;;;;;;7.98;61.66;98309.38;5071744;28;21043;-73
2022/01/23 10:58:20;;;;;;;22.77;16.10;;;;;;;7.90;61.19;98306.50;5056349;28;20178;-73
2022/01/23 11:00:45;;;;;;;40.83;21.97;;;;;;;8.11;61.44;98311.97;5066798;28;20460;-74
2022/01/23 11:03:16;;;;;;;26.23;14.63;;;;;;;8.13;60.54;98310.91;5054566;28;20425;-74
2022/01/23 11:05:42;;;;;;;23.40;14.57;;;;;;;8.33;59.98;98316.47;5045854;28;20211;-70
2022/01/23 11:08:26;;;;;;;21.53;14.27;;;;;;;8.01;60.56;98311.78;5068465;28;20513;-77
2022/01/23 11:11:00;;;;;;;19.33;12.73;;;;;;;7.52;62.10;98311.69;5067634;28;20465;-74
2022/01/23 11:19:22;;;;;;;18.53;13.30;;;;;;;7.81;60.37;98305.34;5064863;28;20435;-73
2022/01/23 11:21:47;;;;;;;18.97;12.47;;;;;;;7.61;60.95;98309.34;5073098;28;20436;-73
2022/01/23 11:24:13;;;;;;;18.57;12.97;;;;;;;7.79;60.31;98302.03;5071861;28;20447;-74
2022/01/23 11:26:40;;;;;;;19.00;13.13;;;;;;;8.15;60.58;98303.81;5071231;28;20270;-72
2022/01/23 11:29:14;;;;;;;20.47;12.73;;;;;;;8.39;59.80;98300.38;5071714;28;20284;-74
2022/01/23 11:31:42;;;;;;;20.07;13.00;;;;;;;8.36;58.26;98307.59;5055431;28;20464;-71
2022/01/23 11:34:08;;;;;;;19.43;12.90;;;;;;;8.07;59.89;98300.88;5071074;28;20456;-72
2022/01/23 11:36:34;;;;;;;21.63;12.37;;;;;;;8.13;60.28;98302.22;5042401;28;20455;-68
2022/01/23 11:39:09;;;;;;;22.30;13.53;;;;;;;8.22;58.67;98300.75;5056186;28;20430;-71
2022/01/23 11:56:25;;;;;;;16.17;11.43;;;;;;;8.78;56.27;98284.50;5050664;28;20425;-69
2022/01/23 11:59:12;;;;;;;21.10;12.80;;;;;;;8.35;57.92;98278.00;5055842;28;20421;-70
2022/01/23 12:01:40;;;;;;;20.30;12.07;;;;;;;8.24;58.09;98268.38;5070881;28;20531;-70
2022/01/23 12:04:09;;;;;;;18.23;12.57;;;;;;;8.55;56.59;98270.53;5054057;28;20427;-69
2022/01/23 12:06:36;;;;;;;15.50;10.53;;;;;;;8.59;57.14;98274.56;5060524;28;20432;-71
2022/01/23 12:09:11;;;;;;;16.00;11.27;;;;;;;8.41;56.23;98272.34;5072307;28;20471;-72
2022/01/23 12:11:53;;;;;;;16.90;11.23;;;;;;;8.66;56.79;98281.03;5051584;28;20463;-69
2022/01/23 12:17:10;;;;;;;19.10;12.33;;;;;;;8.52;56.17;98275.97;5049293;28;20453;-71
2022/01/23 12:19:56;;;;;;;20.10;12.33;;;;;;;8.59;56.39;98270.19;5071649;28;20421;-73
2022/01/23 12:22:37;;;;;;;19.10;12.57;;;;;;;8.17;57.39;98268.91;5062524;28;20498;-72
2022/01/23 12:25:24;;;;;;;17.77;11.73;;;;;;;8.56;57.58;98272.22;5072069;28;20911;-71
2022/01/23 12:28:11;;;;;;;22.60;13.23;;;;;;;8.11;58.27;98257.13;5053302;28;20409;-70
2022/01/23 12:30:38;;;;;;;20.07;12.53;;;;;;;8.43;57.22;98269.63;5070004;28;20937;-70
2022/01/23 12:33:51;;;;;;;20.37;14.03;;;;;;;8.36;57.34;98261.41;5070162;28;20431;-71
2022/01/23 12:36:17;;;;;;;15.30;10.30;;;;;;;7.62;58.44;98256.22;5051588;28;20434;-72
2022/01/23 12:38:47;;;;;;;15.97;11.20;;;;;;;7.92;57.68;98262.84;5069089;28;20582;-70
2022/01/23 12:41:46;;;;;;;19.80;12.20;;;;;;;7.97;57.22;98255.50;5065463;28;20270;-73
2022/01/23 12:44:24;;;;;;;18.53;12.30;;;;;;;8.26;56.01;98249.97;5044724;28;20417;-69
2022/01/23 12:46:57;;;;;;;17.93;12.20;;;;;;;8.57;56.39;98245.09;5069243;28;20946;-70
2022/01/23 12:49:34;;;;;;;20.63;12.03;;;;;;;8.51;56.33;98240.34;5052407;28;20532;-71
2022/01/23 12:52:05;;;;;;;19.63;12.77;;;;;;;8.51;56.39;98245.56;5036338;28;20629;-72
2022/01/23 12:54:33;;;;;;;19.73;12.13;;;;;;;8.01;56.69;98249.13;5069430;28;20409;-71
2022/01/23 12:57:08;;;;;;;16.83;11.93;;;;;;;8.12;56.60;98246.56;5068805;28;20429;-71
2022/01/23 12:59:35;;;;;;;18.47;10.83;;;;;;;8.25;56.67;98250.91;5037715;28;20432;-70
2022/01/23 13:02:09;;;;;;;19.67;11.73;;;;;;;8.37;56.83;98255.22;5051493;28;20528;-70
2022/01/23 13:04:41;;;;;;;17.47;11.40;;;;;;;8.06;55.96;98256.63;5064486;28;20456;-70
2022/01/23 13:07:23;;;;;;;16.90;9.97;;;;;;;8.25;56.61;98262.16;5063742;28;20532;-71
2022/01/23 13:09:54;;;;;;;15.73;10.67;;;;;;;8.06;55.64;98251.41;5048583;28;20416;-72
2022/01/23 13:17:40;;;;;;;12.77;8.27;;;;;;;8.28;53.99;98250.69;5069131;28;20416;-70
2022/01/23 13:29:10;;;;;;;17.70;10.43;;;;;;;8.19;53.08;98236.50;5069947;28;20409;-72
2022/01/23 13:31:39;;;;;;;14.47;9.23;;;;;;;8.41;54.05;98238.38;5072898;28;20499;-73
2022/01/23 13:34:25;;;;;;;15.73;9.47;;;;;;;8.45;54.29;98234.59;5073212;28;20504;-70
2022/01/23 13:37:00;;;;;;;16.77;10.00;;;;;;;8.41;54.24;98230.56;5044176;28;20414;-70
2022/01/23 13:39:29;;;;;;;8.70;6.93;;;;;;;8.46;53.02;98236.25;5074131;28;20419;-71
2022/01/23 13:42:23;;;;;;;9.20;6.00;;;;;;;8.20;52.46;98237.34;5073566;28;20436;-72
2022/01/23 13:53:33;;;;;;;8.27;5.63;;;;;;;7.91;51.95;98219.41;5064834;28;20926;-70
2022/01/23 13:58:52;;;;;;;7.73;5.60;;;;;;;7.91;52.28;98214.19;5057612;28;20413;-72
2022/01/23 14:03:53;;;;;;;6.93;5.93;;;;;;;7.75;52.73;98220.50;5074583;28;20926;-70
2022/01/23 14:06:19;;;;;;;9.33;6.53;;;;;;;8.02;52.52;98219.47;5022683;28;20436;-71
2022/01/23 14:09:06;;;;;;;7.70;5.70;;;;;;;8.05;52.27;98216.63;5063516;28;20521;-73
2022/01/23 14:11:33;;;;;;;8.93;5.90;;;;;;;8.25;52.35;98216.94;5066325;28;20467;-70
2022/01/23 14:14:17;;;;;;;10.27;6.50;;;;;;;8.22;52.07;98223.25;5046412;28;20432;-70
2022/01/23 14:16:45;;;;;;;8.60;5.83;;;;;;;7.93;53.65;98215.72;5054914;28;20413;-71
2022/01/23 14:19:26;;;;;;;7.27;5.60;;;;;;;8.13;52.11;98219.50;5054196;28;20431;-70
2022/01/23 14:21:59;;;;;;;7.67;6.10;;;;;;;8.45;52.08;98215.47;5074043;28;20501;-69
2022/01/23 14:24:32;;;;;;;8.33;6.17;;;;;;;8.57;51.74;98204.13;5066969;28;20938;-72
2022/01/23 14:27:02;;;;;;;10.17;5.60;;;;;;;8.39;51.25;98211.53;5072636;28;20429;-71
2022/01/23 14:29:29;;;;;;;10.03;6.23;;;;;;;7.76;51.98;98203.91;5056646;28;20432;-69
2022/01/23 14:32:19;;;;;;;10.87;6.10;;;;;;;7.94;51.91;98206.16;5071049;28;20464;-71
2022/01/23 14:34:45;;;;;;;10.50;6.70;;;;;;;8.06;51.79;98207.00;5059502;28;20838;-71
2022/01/23 14:37:11;;;;;;;8.30;6.17;;;;;;;8.19;51.68;98209.56;5062685;28;20420;-70
2022/01/23 14:39:37;;;;;;;11.33;6.83;;;;;;;7.72;52.88;98212.88;5076772;28;20429;-70
2022/01/23 14:42:20;;;;;;;9.77;7.07;;;;;;;8.03;53.09;98210.69;5073060;28;20186;-71
2022/01/23 14:44:46;;;;;;;9.43;6.67;;;;;;;7.78;53.32;98211.59;5074204;28;20450;-72
2022/01/23 14:47:12;;;;;;;9.27;6.73;;;;;;;8.07;52.22;98225.16;5073609;28;20424;-70
2022/01/23 14:49:41;;;;;;;8.50;6.10;;;;;;;7.80;52.38;98221.03;5070549;28;20174;-68
2022/01/23 14:52:10;;;;;;;12.53;7.43;;;;;;;7.89;53.33;98213.47;5065952;28;20210;-70
2022/01/23 14:54:37;;;;;;;7.90;5.20;;;;;;;7.69;51.46;98218.31;5073474;28;20424;-70
2022/01/23 14:57:05;;;;;;;6.70;5.50;;;;;;;7.84;50.47;98224.25;5072260;28;20778;-69